Time;durP1;ratioP1;P1;durP2;ratioP2;P2;SDS_P1;SDS_P2;PMS_P1;PMS_P2;Temp;Humidity;BMP_temperature;BMP_pressure;BME280_temperature;BME280_humidity;BME280_pressure;Samples;Min_cycle;Max_cycle;Signal;HPM_P1;HPM_P2
2021/06/30 00:02:15;;;;;;;7.30;1.43;;;;;;;18.64;65.64;96341.34;5083094;28;20511;-67
2021/06/30 00:04:41;;;;;;;1.90;1.80;;;;;;;18.81;64.80;96346.81;5091467;28;20292;-68
2021/06/30 00:07:09;;;;;;;2.37;1.70;;;;;;;19.05;63.98;96346.13;5091951;28;20178;-68
2021/06/30 00:09:35;;;;;;;7.20;1.50;;;;;;;19.09;63.39;96348.09;5091801;28;20170;-68
2021/06/30 00:12:01;;;;;;;1.70;1.60;;;;;;;19.11;63.49;96340.72;5091850;28;20416;-68
2021/06/30 00:14:27;;;;;;;1.70;1.60;;;;;;;19.36;62.89;96344.19;5091713;28;20215;-68
2021/06/30 00:16:53;;;;;;;2.07;1.50;;;;;;;19.40;62.79;96346.19;5092043;28;20466;-68
2021/06/30 00:19:19;;;;;;;1.87;1.67;;;;;;;19.52;62.62;96343.53;5091949;28;20205;-68
2021/06/30 00:21:45;;;;;;;2.33;1.47;;;;;;;19.36;62.79;96350.34;5092007;28;20213;-68
2021/06/30 00:24:11;;;;;;;2.87;1.63;;;;;;;19.39;62.77;96341.09;5091295;28;20448;-68
2021/06/30 00:26:37;;;;;;;3.47;1.70;;;;;;;19.01;64.38;96332.50;5094806;28;20493;-69
2021/06/30 00:29:07;;;;;;;1.43;1.33;;;;;;;18.77;65.39;96328.91;5091630;28;20415;-68
2021/06/30 00:31:33;;;;;;;2.20;2.00;;;;;;;18.21;67.56;96334.34;5084372;28;20447;-68
2021/06/30 00:34:02;;;;;;;2.90;1.90;;;;;;;18.46;65.78;96334.22;5091421;28;20568;-68
2021/06/30 00:36:31;;;;;;;2.30;2.10;;;;;;;18.73;65.38;96341.84;5091773;28;20182;-69
2021/06/30 00:38:57;;;;;;;5.77;1.87;;;;;;;18.72;65.61;96340.22;5091089;28;21042;-68
2021/06/30 00:41:23;;;;;;;11.73;3.30;;;;;;;18.23;67.22;96348.16;5091858;28;20424;-68
2021/06/30 00:43:49;;;;;;;3.17;2.10;;;;;;;18.28;67.13;96340.38;5091567;28;20504;-67
2021/06/30 00:46:14;;;;;;;2.60;1.67;;;;;;;18.80;65.01;96347.84;5091730;28;20204;-68
2021/06/30 00:48:40;;;;;;;1.87;1.57;;;;;;;18.90;64.51;96344.66;5091883;28;20268;-68
2021/06/30 00:51:06;;;;;;;1.70;1.43;;;;;;;19.09;63.49;96344.63;5092922;28;20184;-68
2021/06/30 00:53:32;;;;;;;7.63;1.20;;;;;;;18.54;65.00;96341.06;5092087;28;20260;-68
2021/06/30 00:55:58;;;;;;;3.43;1.30;;;;;;;18.61;65.03;96349.75;5092693;28;20800;-71
2021/06/30 00:58:24;;;;;;;3.27;1.80;;;;;;;18.77;64.06;96345.66;5091509;28;20173;-68
2021/06/30 01:00:49;;;;;;;3.30;1.20;;;;;;;18.72;63.78;96348.97;5085429;28;20197;-69
2021/06/30 01:03:15;;;;;;;1.73;1.10;;;;;;;18.61;63.72;96343.63;5093843;28;20185;-69
2021/06/30 01:05:41;;;;;;;3.60;1.13;;;;;;;18.54;63.95;96347.16;5096071;28;20234;-69
2021/06/30 01:08:07;;;;;;;2.27;1.20;;;;;;;18.53;64.00;96358.03;5095735;28;20185;-68
2021/06/30 01:10:32;;;;;;;1.30;1.17;;;;;;;18.64;63.53;96354.59;5096785;28;20698;-67
2021/06/30 01:12:58;;;;;;;2.30;1.10;;;;;;;18.15;64.99;96359.88;5094751;28;20177;-68
2021/06/30 01:15:23;;;;;;;1.83;1.00;;;;;;;18.24;64.61;96361.22;5096070;28;20197;-70
2021/06/30 01:17:52;;;;;;;2.03;1.07;;;;;;;18.21;64.18;96372.25;5096965;28;20248;-69
2021/06/30 01:20:18;;;;;;;2.30;1.40;;;;;;;17.68;66.50;96372.75;5096464;28;20697;-69
2021/06/30 01:23:02;;;;;;;1.33;1.20;;;;;;;17.95;65.48;96376.78;5095755;28;20522;-68
2021/06/30 01:25:27;;;;;;;2.80;1.20;;;;;;;17.92;66.62;96379.06;5096017;28;20276;-68
2021/06/30 01:27:53;;;;;;;2.70;1.20;;;;;;;17.70;67.06;96373.38;5096648;28;20514;-69
2021/06/30 01:30:18;;;;;;;1.20;1.00;;;;;;;17.86;67.58;96374.63;5094060;28;20296;-68
2021/06/30 01:32:44;;;;;;;2.37;1.33;;;;;;;17.64;69.27;96383.00;5090029;28;20196;-68
2021/06/30 01:35:18;;;;;;;9.27;1.00;;;;;;;17.65;69.32;96381.97;5094479;28;20197;-69
2021/06/30 01:37:46;;;;;;;1.50;1.00;;;;;;;17.56;69.51;96373.47;5095486;28;20306;-69
2021/06/30 01:40:12;;;;;;;2.90;1.00;;;;;;;17.44;69.74;96372.56;5094822;28;20455;-68
2021/06/30 01:42:38;;;;;;;2.30;1.10;;;;;;;16.86;72.93;96374.38;5095362;28;20573;-68
2021/06/30 01:45:04;;;;;;;1.53;1.00;;;;;;;17.56;70.50;96370.03;5094742;28;20447;-69
2021/06/30 01:47:30;;;;;;;6.33;1.10;;;;;;;16.90;74.05;96364.97;5095384;28;20201;-69
2021/06/30 01:49:55;;;;;;;1.23;1.13;;;;;;;17.45;71.82;96360.94;5097596;28;20507;-69
2021/06/30 01:52:21;;;;;;;1.30;1.10;;;;;;;17.54;70.97;96362.28;5098793;28;20227;-69
2021/06/30 01:54:46;;;;;;;7.77;1.40;;;;;;;17.59;71.22;96354.50;5098356;28;20239;-70
2021/06/30 01:57:12;;;;;;;3.63;1.37;;;;;;;17.65;70.71;96358.13;5096424;28;20257;-69
2021/06/30 01:59:38;;;;;;;1.43;1.00;;;;;;;17.45;70.95;96355.66;5095227;28;20190;-69
2021/06/30 02:02:04;;;;;;;1.30;1.03;;;;;;;17.28;70.76;96350.09;5086816;28;20193;-69
2021/06/30 02:04:29;;;;;;;1.67;0.90;;;;;;;17.12;71.71;96346.13;5093712;28;20227;-69
2021/06/30 02:06:55;;;;;;;1.00;0.70;;;;;;;16.94;71.78;96347.69;5094599;28;20420;-69
2021/06/30 02:09:21;;;;;;;1.03;0.93;;;;;;;16.50;72.29;96342.19;5094009;28;20183;-70
2021/06/30 02:11:46;;;;;;;2.20;0.80;;;;;;;16.55;71.43;96345.03;5093603;28;20182;-70
2021/06/30 02:14:12;;;;;;;1.10;0.90;;;;;;;16.78;71.96;96348.13;5093394;28;20205;-69
2021/06/30 02:16:38;;;;;;;1.00;0.70;;;;;;;16.78;70.88;96345.50;5093966;28;20681;-68
2021/06/30 02:19:06;;;;;;;1.10;0.73;;;;;;;17.08;70.42;96337.00;5093729;28;20198;-70
2021/06/30 02:21:33;;;;;;;1.43;1.00;;;;;;;16.86;70.69;96339.97;5092637;28;20558;-69
2021/06/30 02:23:58;;;;;;;1.83;0.80;;;;;;;16.74;70.69;96345.94;5092038;28;20443;-69
2021/06/30 02:26:24;;;;;;;1.00;0.90;;;;;;;16.61;71.18;96348.66;5093436;28;20480;-69
2021/06/30 02:28:50;;;;;;;1.37;0.80;;;;;;;16.28;71.19;96354.88;5093241;28;20186;-69
2021/06/30 02:31:17;;;;;;;1.40;0.90;;;;;;;16.31;71.26;96349.19;5085280;28;20187;-69
2021/06/30 02:33:45;;;;;;;8.33;0.80;;;;;;;16.57;69.93;96350.09;5092875;28;20201;-69
2021/06/30 02:36:10;;;;;;;0.90;0.70;;;;;;;16.48;69.75;96354.00;5095737;28;20420;-69
2021/06/30 02:38:36;;;;;;;0.90;0.70;;;;;;;16.39;70.29;96359.53;5092688;28;20995;-69
2021/06/30 02:41:02;;;;;;;1.10;0.67;;;;;;;16.26;70.44;96367.50;5092866;28;20205;-70
2021/06/30 02:43:28;;;;;;;0.80;0.60;;;;;;;16.15;71.11;96365.50;5092479;28;20186;-69
2021/06/30 02:45:53;;;;;;;2.60;0.60;;;;;;;15.57;73.29;96348.53;5092792;28;20706;-69
2021/06/30 02:48:19;;;;;;;1.30;0.70;;;;;;;15.75;72.39;96353.97;5092786;28;20284;-69
2021/06/30 02:50:45;;;;;;;7.00;0.70;;;;;;;15.34;73.05;96363.78;5093024;28;20205;-69
2021/06/30 02:53:10;;;;;;;1.20;0.70;;;;;;;15.90;71.24;96366.19;5092606;28;20202;-70
2021/06/30 02:55:36;;;;;;;10.60;0.70;;;;;;;16.04;70.46;96359.84;5091543;28;20208;-68
2021/06/30 02:58:01;;;;;;;2.27;0.60;;;;;;;16.20;69.50;96368.34;5092572;28;20182;-68
2021/06/30 03:00:27;;;;;;;1.20;0.60;;;;;;;16.01;70.60;96373.47;5089297;28;20206;-70
2021/06/30 03:02:53;;;;;;;3.83;0.63;;;;;;;16.11;69.81;96381.81;5088240;28;20225;-71
2021/06/30 03:05:19;;;;;;;1.00;0.63;;;;;;;16.15;69.14;96374.25;5092275;28;20194;-69
2021/06/30 03:07:45;;;;;;;1.57;0.60;;;;;;;15.49;71.73;96386.53;5091533;28;20193;-69
2021/06/30 03:10:12;;;;;;;0.90;0.60;;;;;;;15.35;71.86;96368.03;5091147;28;21015;-69
2021/06/30 03:12:39;;;;;;;1.07;0.73;;;;;;;15.67;71.02;96377.97;5092587;28;20798;-69
2021/06/30 03:15:07;;;;;;;1.40;0.70;;;;;;;15.90;69.77;96376.75;5091701;28;20443;-69
2021/06/30 03:17:34;;;;;;;1.10;0.57;;;;;;;15.91;69.76;96375.72;5092580;28;20850;-70
2021/06/30 03:20:01;;;;;;;1.27;0.60;;;;;;;15.76;71.21;96371.47;5092387;28;20497;-70
2021/06/30 03:22:27;;;;;;;1.67;0.60;;;;;;;15.48;72.20;96369.88;5092232;28;20430;-69
2021/06/30 03:24:53;;;;;;;1.77;0.70;;;;;;;15.75;72.14;96369.81;5091075;28;20814;-69
2021/06/30 03:27:19;;;;;;;2.90;0.77;;;;;;;15.35;73.30;96372.53;5092264;28;20350;-69
2021/06/30 03:29:45;;;;;;;0.90;0.70;;;;;;;15.88;71.68;96365.59;5091951;28;20514;-69
2021/06/30 03:32:10;;;;;;;2.40;0.83;;;;;;;15.66;71.80;96363.97;5084961;28;20426;-68
2021/06/30 03:34:36;;;;;;;1.07;0.70;;;;;;;15.29;73.05;96363.59;5091966;28;20201;-68
2021/06/30 03:37:02;;;;;;;0.90;0.80;;;;;;;15.65;71.73;96366.81;5087875;28;20181;-67
2021/06/30 03:39:27;;;;;;;0.90;0.70;;;;;;;15.43;72.83;96364.38;5091782;28;20207;-67
2021/06/30 03:41:53;;;;;;;3.80;0.97;;;;;;;15.71;70.97;96360.72;5092285;28;20178;-70
2021/06/30 03:44:18;;;;;;;2.17;0.80;;;;;;;15.49;73.04;96363.59;5091263;28;20206;-69
2021/06/30 03:46:44;;;;;;;1.03;0.70;;;;;;;15.48;72.54;96364.59;5077324;28;20206;-70
2021/06/30 03:49:09;;;;;;;1.87;0.70;;;;;;;15.71;72.33;96360.72;5089599;28;20177;-69
2021/06/30 03:51:35;;;;;;;1.23;0.80;;;;;;;15.71;72.17;96360.72;5091593;28;20308;-69
2021/06/30 03:54:01;;;;;;;1.00;0.73;;;;;;;15.85;71.26;96360.72;5091036;28;20205;-69
2021/06/30 03:56:26;;;;;;;2.07;0.90;;;;;;;15.71;71.55;96368.63;5091726;28;20181;-69
2021/06/30 03:58:55;;;;;;;0.90;0.70;;;;;;;15.78;70.87;96360.69;5091764;28;20178;-70
2021/06/30 04:01:22;;;;;;;0.90;0.70;;;;;;;15.63;72.23;96368.81;5091270;28;20652;-69
2021/06/30 04:04:00;;;;;;;1.00;0.80;;;;;;;15.96;70.71;96370.66;5091123;28;20813;-68
2021/06/30 04:06:25;;;;;;;1.73;0.80;;;;;;;15.81;71.47;96371.66;5083321;28;20784;-69
2021/06/30 04:08:51;;;;;;;1.30;0.70;;;;;;;15.76;70.98;96376.75;5091965;28;20490;-70
2021/06/30 04:11:17;;;;;;;8.20;0.80;;;;;;;15.76;71.13;96379.38;5091409;28;20318;-70
2021/06/30 04:13:44;;;;;;;1.63;1.07;;;;;;;15.66;71.71;96374.53;5090951;28;20664;-69
2021/06/30 04:16:09;;;;;;;2.20;0.70;;;;;;;16.06;70.09;96373.69;5090993;28;20412;-69
2021/06/30 04:18:35;;;;;;;1.40;0.57;;;;;;;16.12;69.78;96375.50;5084330;28;20439;-69
2021/06/30 04:21:01;;;;;;;5.00;0.80;;;;;;;16.06;69.74;96372.88;5090964;28;20572;-69
2021/06/30 04:23:27;;;;;;;1.50;0.70;;;;;;;16.05;70.10;96361.47;5091179;28;20412;-69
2021/06/30 04:25:52;;;;;;;1.97;0.77;;;;;;;16.23;69.76;96373.22;5091585;28;20212;-70
2021/06/30 04:28:18;;;;;;;2.77;0.90;;;;;;;16.25;69.81;96363.25;5091193;28;20537;-69
2021/06/30 04:30:44;;;;;;;1.87;0.80;;;;;;;16.05;70.19;96364.13;5091555;28;20554;-70
2021/06/30 04:33:10;;;;;;;1.83;0.90;;;;;;;16.06;70.46;96363.09;5091016;28;20178;-70
2021/06/30 04:35:35;;;;;;;1.13;0.70;;;;;;;16.13;70.36;96365.72;5091261;28;20217;-69
2021/06/30 04:38:02;;;;;;;1.27;0.80;;;;;;;16.03;70.93;96363.50;5091092;28;20189;-68
2021/06/30 04:40:28;;;;;;;0.90;0.77;;;;;;;16.05;71.02;96360.69;5091340;28;20209;-69
2021/06/30 04:42:54;;;;;;;1.30;0.80;;;;;;;15.65;71.92;96372.09;5091597;28;20542;-69
2021/06/30 04:45:19;;;;;;;1.33;1.20;;;;;;;16.25;70.48;96365.91;5095807;28;20620;-70
2021/06/30 04:47:45;;;;;;;1.33;0.83;;;;;;;16.10;70.52;96364.31;5096350;28;20181;-69
2021/06/30 04:50:11;;;;;;;5.10;0.80;;;;;;;16.06;70.64;96373.69;5091396;28;20177;-69
2021/06/30 04:52:37;;;;;;;1.17;0.70;;;;;;;16.17;70.53;96374.03;5090135;28;20239;-68
2021/06/30 04:55:04;;;;;;;3.70;0.80;;;;;;;15.85;71.14;96366.00;5090655;28;20431;-67
2021/06/30 04:57:30;;;;;;;0.90;0.70;;;;;;;15.71;71.06;96366.00;5091032;28;20427;-68
2021/06/30 04:59:56;;;;;;;2.13;0.80;;;;;;;15.96;71.05;96370.66;5091089;28;20485;-69
2021/06/30 05:02:21;;;;;;;0.90;0.80;;;;;;;16.11;70.10;96375.69;5090854;28;20188;-68
2021/06/30 05:04:47;;;;;;;1.10;1.00;;;;;;;15.94;71.03;96381.41;5090486;28;20263;-70
2021/06/30 05:07:12;;;;;;;1.10;0.80;;;;;;;15.68;71.75;96376.97;5090572;28;20260;-68
2021/06/30 05:09:38;;;;;;;4.03;1.10;;;;;;;15.99;70.88;96364.97;5091266;28;20193;-70
2021/06/30 05:12:04;;;;;;;4.57;0.83;;;;;;;16.40;69.22;96376.22;5090910;28;20239;-69
2021/06/30 05:14:29;;;;;;;8.43;0.80;;;;;;;16.76;67.83;96366.09;5090685;28;20594;-69
2021/06/30 05:16:56;;;;;;;3.40;1.00;;;;;;;16.56;68.06;96361.69;5088977;28;20507;-68
2021/06/30 05:19:21;;;;;;;1.00;0.90;;;;;;;16.64;68.00;96363.28;5090782;28;20303;-69
2021/06/30 05:21:47;;;;;;;2.60;1.20;;;;;;;16.88;67.12;96365.19;5091717;28;20542;-69
2021/06/30 05:24:12;;;;;;;1.30;1.20;;;;;;;16.38;68.91;96372.97;5090911;28;20217;-68
2021/06/30 05:26:38;;;;;;;2.60;0.90;;;;;;;16.96;67.17;96384.50;5091021;28;20181;-68
2021/06/30 05:29:04;;;;;;;1.87;0.90;;;;;;;17.06;66.08;96376.94;5090984;28;20206;-69
2021/06/30 05:31:29;;;;;;;2.50;1.00;;;;;;;17.15;66.14;96375.63;5092358;28;20178;-69
2021/06/30 05:33:55;;;;;;;3.80;1.00;;;;;;;16.80;67.35;96372.56;5092282;28;20197;-70
2021/06/30 05:36:20;;;;;;;1.30;1.20;;;;;;;16.99;66.04;96374.31;5091377;28;20193;-69
2021/06/30 05:38:46;;;;;;;1.77;0.97;;;;;;;17.12;65.96;96370.75;5090461;28;20196;-68
2021/06/30 05:41:12;;;;;;;2.70;0.90;;;;;;;17.28;65.58;96380.00;5090510;28;20599;-70
2021/06/30 05:43:38;;;;;;;1.53;1.00;;;;;;;16.45;67.66;96372.94;5090135;28;20190;-70
2021/06/30 05:46:04;;;;;;;0.97;0.83;;;;;;;16.81;67.29;96375.00;5090327;28;20200;-68
2021/06/30 05:48:30;;;;;;;1.83;0.80;;;;;;;17.39;65.56;96385.66;5085287;28;20173;-69
2021/06/30 05:50:56;;;;;;;1.33;0.90;;;;;;;17.29;65.49;96384.28;5092753;28;20430;-69
2021/06/30 05:53:21;;;;;;;4.83;0.90;;;;;;;17.52;64.42;96380.22;5093602;28;20246;-68
2021/06/30 05:55:47;;;;;;;6.10;0.80;;;;;;;17.86;63.46;96380.75;5075763;28;20190;-70
2021/06/30 05:58:12;;;;;;;1.10;0.80;;;;;;;18.34;62.43;96370.50;5093539;28;20189;-69
2021/06/30 06:00:38;;;;;;;0.97;0.83;;;;;;;18.49;61.39;96372.75;5091263;28;20238;-69
2021/06/30 06:03:04;;;;;;;1.10;0.80;;;;;;;18.59;60.39;96375.69;5092364;28;20193;-69
2021/06/30 06:05:30;;;;;;;1.00;0.73;;;;;;;18.66;59.77;96379.06;5093598;28;20588;-69
2021/06/30 06:07:55;;;;;;;1.50;0.70;;;;;;;18.92;59.17;96385.06;5093576;28;20526;-69
2021/06/30 06:10:21;;;;;;;3.80;0.73;;;;;;;18.35;60.89;96385.38;5093436;28;20256;-70
2021/06/30 06:12:46;;;;;;;0.93;0.67;;;;;;;19.31;58.50;96374.94;5093667;28;20186;-69
2021/06/30 06:15:12;;;;;;;0.90;0.70;;;;;;;19.21;58.37;96376.50;5093071;28;20262;-69
2021/06/30 06:17:38;;;;;;;1.83;0.70;;;;;;;19.56;57.88;96378.41;5093632;28;20170;-70
2021/06/30 06:20:08;;;;;;;0.90;0.70;;;;;;;19.59;57.36;96380.63;5093448;28;20227;-70
2021/06/30 06:22:34;;;;;;;1.00;0.70;;;;;;;18.91;58.62;96391.41;5093654;28;20170;-70
2021/06/30 06:24:59;;;;;;;3.63;1.00;;;;;;;18.34;60.51;96391.72;5093046;28;20438;-68
2021/06/30 06:27:25;;;;;;;0.90;0.70;;;;;;;19.31;57.92;96382.06;5093216;28;20174;-68
2021/06/30 06:29:51;;;;;;;1.00;0.70;;;;;;;19.19;58.30;96379.41;5089825;28;20575;-68
2021/06/30 06:32:17;;;;;;;1.93;0.60;;;;;;;19.37;57.07;96383.81;5091840;28;20185;-70
2021/06/30 06:34:43;;;;;;;1.10;0.73;;;;;;;18.82;58.78;96392.75;5093184;28;20500;-69
2021/06/30 06:37:12;;;;;;;2.53;0.80;;;;;;;18.43;59.97;96385.06;5091665;28;20416;-70
2021/06/30 06:39:38;;;;;;;2.07;1.00;;;;;;;19.41;57.34;96384.19;5091810;28;20284;-70
2021/06/30 06:42:05;;;;;;;2.90;1.03;;;;;;;19.64;57.27;96383.41;5093096;28;20451;-68
2021/06/30 06:44:33;;;;;;;3.03;1.70;;;;;;;19.51;56.80;96383.63;5091583;28;21016;-68
2021/06/30 06:46:59;;;;;;;3.40;1.70;;;;;;;19.82;56.32;96381.66;5093024;28;20420;-70
2021/06/30 06:49:24;;;;;;;3.27;1.90;;;;;;;19.41;57.58;96384.97;5093454;28;20461;-68
2021/06/30 06:51:50;;;;;;;3.33;1.10;;;;;;;18.69;58.55;96383.13;5093373;28;20583;-68
2021/06/30 06:54:15;;;;;;;2.70;0.90;;;;;;;18.00;61.28;96386.75;5093281;28;20193;-70
2021/06/30 06:56:41;;;;;;;1.40;0.73;;;;;;;17.76;61.01;96383.91;5094693;28;20173;-71
2021/06/30 06:59:07;;;;;;;2.60;0.90;;;;;;;18.92;58.56;96393.03;5092801;28;20231;-67
2021/06/30 07:01:32;;;;;;;1.70;0.80;;;;;;;19.13;57.18;96383.78;5087861;28;20178;-70
2021/06/30 07:03:58;;;;;;;1.00;0.70;;;;;;;18.22;58.26;96399.56;5092457;28;20295;-69
2021/06/30 07:06:23;;;;;;;2.20;0.70;;;;;;;18.30;57.63;96391.34;5091381;28;20223;-70
2021/06/30 07:08:49;;;;;;;3.30;0.70;;;;;;;18.32;57.70;96404.38;5091940;28;20212;-69
2021/06/30 07:11:15;;;;;;;0.90;0.70;;;;;;;18.21;58.55;96398.78;5093033;28;20177;-70
2021/06/30 07:13:40;;;;;;;2.30;0.70;;;;;;;18.67;57.58;96395.78;5092713;28;20174;-69
2021/06/30 07:16:07;;;;;;;2.30;0.90;;;;;;;18.52;58.04;96393.53;5091565;28;20181;-70
2021/06/30 07:18:34;;;;;;;5.73;1.13;;;;;;;19.24;55.61;96390.13;5093072;28;20170;-70
2021/06/30 07:21:03;;;;;;;3.57;0.70;;;;;;;19.42;54.92;96385.78;5092749;28;20454;-69
2021/06/30 07:23:30;;;;;;;1.00;0.70;;;;;;;19.90;54.38;96390.13;5084613;28;20427;-70
2021/06/30 07:25:56;;;;;;;2.10;0.70;;;;;;;19.01;55.17;96389.03;5092371;28;20805;-69
2021/06/30 07:28:23;;;;;;;1.73;0.60;;;;;;;19.01;54.76;96391.69;5092492;28;20410;-69
2021/06/30 07:30:49;;;;;;;2.07;0.50;;;;;;;19.08;54.31;96380.97;5087541;28;20438;-71
2021/06/30 07:33:14;;;;;;;1.30;1.00;;;;;;;19.52;52.27;96385.25;5092135;28;20502;-71
2021/06/30 07:35:40;;;;;;;1.60;0.90;;;;;;;19.63;52.86;96395.06;5092628;28;20221;-69
2021/06/30 07:38:07;;;;;;;1.57;0.90;;;;;;;19.23;53.57;96396.47;5092614;28;20181;-69
2021/06/30 07:40:33;;;;;;;1.33;0.80;;;;;;;19.89;52.03;96395.69;5092595;28;20197;-70
2021/06/30 07:42:59;;;;;;;1.63;0.60;;;;;;;19.69;52.25;96396.78;5092812;28;20416;-69
2021/06/30 07:45:25;;;;;;;0.80;0.50;;;;;;;19.76;52.83;96396.69;5092121;28;20531;-70
2021/06/30 07:47:50;;;;;;;0.90;0.77;;;;;;;19.48;53.13;96393.66;5092552;28;20192;-71
2021/06/30 07:50:17;;;;;;;4.20;0.70;;;;;;;19.87;52.60;96392.44;5092469;28;20412;-70
2021/06/30 07:52:44;;;;;;;0.90;0.80;;;;;;;20.50;49.62;96395.38;5092428;28;20664;-71
2021/06/30 07:55:10;;;;;;;1.10;0.90;;;;;;;20.03;51.50;96402.38;5092253;28;20443;-69
2021/06/30 07:57:36;;;;;;;1.33;1.07;;;;;;;20.17;51.88;96391.47;5091028;28;20902;-69
2021/06/30 08:00:02;;;;;;;0.90;0.60;;;;;;;20.55;51.60;96395.44;5087138;28;20193;-69
2021/06/30 08:02:28;;;;;;;0.80;0.50;;;;;;;19.91;52.46;96404.25;5092198;28;20182;-71
2021/06/30 08:04:54;;;;;;;2.40;0.70;;;;;;;20.76;52.68;96403.88;5091430;28;20528;-69
2021/06/30 08:07:21;;;;;;;0.80;0.50;;;;;;;19.85;55.27;96403.25;5091816;28;20174;-68
2021/06/30 08:09:46;;;;;;;0.97;0.70;;;;;;;19.71;55.28;96408.00;5091521;28;20177;-68
2021/06/30 08:12:12;;;;;;;1.00;0.60;;;;;;;18.91;56.56;96407.34;5093810;28;20424;-71
2021/06/30 08:14:37;;;;;;;2.70;0.60;;;;;;;18.44;58.13;96413.22;5092508;28;20205;-70
2021/06/30 08:17:04;;;;;;;1.33;0.60;;;;;;;18.67;57.45;96406.41;5092558;28;20189;-70
2021/06/30 08:19:30;;;;;;;1.00;0.70;;;;;;;18.81;57.42;96415.03;5092144;28;20228;-70
2021/06/30 08:21:55;;;;;;;2.50;0.70;;;;;;;19.15;55.93;96408.25;5090942;28;20419;-69
2021/06/30 08:24:21;;;;;;;2.63;0.60;;;;;;;19.39;55.86;96413.63;5092231;28;20290;-69
2021/06/30 08:26:47;;;;;;;1.00;0.70;;;;;;;20.02;54.55;96400.78;5093195;28;20198;-69
2021/06/30 08:29:12;;;;;;;1.30;0.60;;;;;;;20.46;52.91;96405.69;5076510;28;20192;-68
2021/06/30 08:31:38;;;;;;;1.67;1.57;;;;;;;21.21;50.33;96400.44;5087942;28;20258;-68
2021/06/30 08:34:04;;;;;;;1.30;0.60;;;;;;;21.07;50.17;96391.94;5090574;28;20294;-67
2021/06/30 08:36:29;;;;;;;0.80;0.60;;;;;;;21.46;48.92;96396.56;5093152;28;20605;-70
2021/06/30 08:38:55;;;;;;;0.90;0.60;;;;;;;22.08;47.37;96398.34;5094755;28;20276;-68
2021/06/30 08:41:21;;;;;;;1.53;1.13;;;;;;;21.75;47.22;96393.88;5092039;28;20209;-68
2021/06/30 08:43:47;;;;;;;5.43;0.60;;;;;;;21.71;47.92;96395.38;5091945;28;20214;-68
2021/06/30 08:46:18;;;;;;;0.90;0.60;;;;;;;21.69;47.58;96400.16;5093079;28;20488;-69
2021/06/30 08:48:44;;;;;;;2.80;0.60;;;;;;;21.60;46.94;96392.56;5091901;28;20181;-69
2021/06/30 08:51:12;;;;;;;0.90;0.60;;;;;;;21.89;46.73;96394.31;5091523;28;20434;-68
2021/06/30 08:53:40;;;;;;;1.03;0.67;;;;;;;21.50;47.82;96397.72;5090558;28;20919;-69
2021/06/30 08:56:07;;;;;;;2.50;1.00;;;;;;;20.15;51.25;96404.22;5094356;28;20416;-70
2021/06/30 08:58:33;;;;;;;1.50;0.80;;;;;;;20.39;51.47;96404.97;5091542;28;20432;-69
2021/06/30 09:00:59;;;;;;;2.20;0.50;;;;;;;19.77;51.11;96398.31;5085425;28;20459;-70
2021/06/30 09:03:25;;;;;;;1.40;0.93;;;;;;;19.85;51.61;96397.16;5091484;28;20181;-69
2021/06/30 09:08:21;;;;;;;2.13;0.80;;;;;;;19.38;51.88;96414.66;5089975;28;20275;-69
2021/06/30 09:10:47;;;;;;;1.10;0.70;;;;;;;19.69;51.03;96411.94;5091212;28;21123;-68
2021/06/30 09:13:24;;;;;;;1.03;0.87;;;;;;;19.43;51.94;96406.81;5091139;28;20519;-69
2021/06/30 09:15:59;;;;;;;1.07;0.97;;;;;;;20.04;50.38;96411.97;5091407;28;20206;-70
2021/06/30 09:18:48;;;;;;;1.20;0.73;;;;;;;19.36;51.25;96408.78;5091231;28;20415;-69
2021/06/30 09:21:29;;;;;;;1.00;0.60;;;;;;;20.08;50.56;96407.00;5090610;28;20487;-70
2021/06/30 09:24:05;;;;;;;1.37;0.60;;;;;;;20.18;50.10;96409.88;5094522;28;20485;-70
2021/06/30 09:26:33;;;;;;;1.10;0.60;;;;;;;20.10;50.12;96408.38;5095200;28;20415;-69
2021/06/30 09:29:07;;;;;;;1.27;1.07;;;;;;;20.31;49.61;96406.16;5095582;28;20453;-69
2021/06/30 09:31:34;;;;;;;1.47;0.50;;;;;;;19.91;50.00;96406.91;5090723;28;20464;-69
2021/06/30 09:34:00;;;;;;;0.90;0.60;;;;;;;20.30;48.75;96409.84;5096747;28;20871;-69
2021/06/30 09:36:30;;;;;;;2.77;0.63;;;;;;;20.46;48.67;96410.19;5090638;28;20451;-70
2021/06/30 09:39:05;;;;;;;3.43;0.60;;;;;;;20.12;49.60;96415.31;5096157;28;20194;-69
2021/06/30 09:41:31;;;;;;;1.13;0.90;;;;;;;20.10;49.92;96421.69;5086988;28;20459;-69
2021/06/30 09:44:05;;;;;;;0.90;0.60;;;;;;;20.16;49.98;96422.59;5094392;28;20447;-70
2021/06/30 09:46:30;;;;;;;2.30;0.70;;;;;;;19.98;50.75;96428.03;5095231;28;20189;-70
2021/06/30 09:49:01;;;;;;;1.50;0.70;;;;;;;19.66;51.21;96418.50;5096087;28;20427;-70
2021/06/30 09:51:26;;;;;;;0.90;0.60;;;;;;;20.11;50.49;96419.81;5092140;28;20178;-69
2021/06/30 09:53:52;;;;;;;1.00;0.70;;;;;;;19.71;52.40;96423.16;5094947;28;20435;-68
2021/06/30 09:56:39;;;;;;;0.90;0.70;;;;;;;20.40;50.19;96418.06;5095305;28;20303;-69
2021/06/30 09:59:14;;;;;;;0.90;0.60;;;;;;;20.45;48.91;96414.69;5093496;28;20424;-70
2021/06/30 10:01:50;;;;;;;0.80;0.50;;;;;;;20.58;48.26;96408.28;5090011;28;20434;-69
2021/06/30 10:04:24;;;;;;;0.90;0.53;;;;;;;20.54;48.20;96397.31;5093267;28;20443;-72
2021/06/30 10:06:55;;;;;;;0.97;0.70;;;;;;;20.83;48.03;96409.88;5072996;28;20420;-68
2021/06/30 10:09:20;;;;;;;1.17;0.73;;;;;;;20.98;48.28;96399.50;5093688;28;20416;-68
2021/06/30 10:11:55;;;;;;;1.20;0.80;;;;;;;21.73;46.81;96399.44;5094191;28;20949;-68
2021/06/30 10:14:21;;;;;;;0.90;0.70;;;;;;;22.68;44.70;96403.13;5093614;28;20598;-69
2021/06/30 10:16:46;;;;;;;2.10;0.60;;;;;;;22.17;44.50;96398.75;5094703;28;20426;-69
2021/06/30 10:19:12;;;;;;;1.00;0.60;;;;;;;22.72;43.28;96401.56;5092261;28;20192;-69
2021/06/30 10:21:38;;;;;;;1.17;0.57;;;;;;;21.86;43.60;96392.97;5093831;28;20285;-68
2021/06/30 10:24:04;;;;;;;3.20;0.70;;;;;;;21.81;44.46;96395.53;5095237;28;20213;-69
2021/06/30 10:26:29;;;;;;;1.20;0.80;;;;;;;22.14;43.16;96396.56;5092782;28;20664;-69
2021/06/30 10:28:59;;;;;;;2.60;0.60;;;;;;;21.69;44.51;96398.31;5094540;28;20197;-69
2021/06/30 10:31:25;;;;;;;3.57;0.97;;;;;;;22.16;44.01;96404.31;5089217;28;20250;-68
2021/06/30 10:34:00;;;;;;;1.10;0.60;;;;;;;21.02;45.80;96410.47;5092698;28;20456;-69
2021/06/30 10:36:54;;;;;;;1.87;1.30;;;;;;;22.27;43.70;96400.72;5086128;28;20441;-67
2021/06/30 10:39:41;;;;;;;1.00;0.73;;;;;;;23.52;41.17;96389.53;5093949;28;20850;-66
2021/06/30 10:42:34;;;;;;;1.00;0.70;;;;;;;22.64;42.56;96391.31;5093795;28;20435;-68
2021/06/30 10:45:18;;;;;;;1.33;0.70;;;;;;;21.81;43.62;96382.22;5094707;28;21058;-68
2021/06/30 10:47:52;;;;;;;0.97;0.67;;;;;;;21.68;43.54;96386.03;5087114;28;20481;-69
2021/06/30 10:50:17;;;;;;;1.23;0.73;;;;;;;21.41;44.77;96388.53;5092718;28;20469;-68
2021/06/30 10:53:03;;;;;;;1.00;0.60;;;;;;;21.28;46.34;96390.44;5092664;28;20432;-69
2021/06/30 10:58:19;;;;;;;0.80;0.50;;;;;;;21.72;44.48;96389.84;5093132;28;20428;-69
2021/06/30 11:01:05;;;;;;;1.17;0.70;;;;;;;21.70;45.00;96393.78;5088366;28;20451;-69
2021/06/30 11:03:33;;;;;;;0.90;0.80;;;;;;;21.78;43.80;96404.06;5092483;28;20409;-68
2021/06/30 11:06:15;;;;;;;0.90;0.70;;;;;;;21.21;45.58;96395.09;5096901;28;20416;-68
2021/06/30 11:08:54;;;;;;;2.20;0.80;;;;;;;21.57;44.22;96398.34;5086605;28;20420;-69
2021/06/30 11:11:26;;;;;;;1.00;0.70;;;;;;;21.51;44.04;96390.53;5092808;28;21654;-68
2021/06/30 11:13:51;;;;;;;3.80;0.80;;;;;;;20.83;44.77;96388.56;5092316;28;20519;-69
2021/06/30 11:16:53;;;;;;;3.23;1.00;;;;;;;21.76;43.06;96382.16;5092836;28;20517;-69
2021/06/30 11:19:19;;;;;;;1.27;0.90;;;;;;;20.96;44.15;96385.63;5090277;28;20594;-68
2021/06/30 11:21:47;;;;;;;1.00;0.70;;;;;;;21.79;43.72;96377.13;5088485;28;20424;-66
2021/06/30 11:24:42;;;;;;;1.20;0.90;;;;;;;22.50;41.87;96378.34;5089834;28;20301;-68
2021/06/30 11:27:16;;;;;;;1.70;1.37;;;;;;;21.86;43.28;96363.63;5089738;28;20419;-68
2021/06/30 11:30:02;;;;;;;1.60;0.70;;;;;;;22.03;43.31;96368.94;5085040;28;20416;-68
2021/06/30 11:32:30;;;;;;;1.00;0.80;;;;;;;22.18;43.17;96370.97;5073395;28;20431;-68
2021/06/30 11:34:57;;;;;;;0.90;0.60;;;;;;;21.67;43.94;96363.09;5089483;28;20440;-68
2021/06/30 11:37:22;;;;;;;1.97;0.90;;;;;;;21.73;44.14;96364.78;5083418;28;20430;-67
2021/06/30 11:39:50;;;;;;;2.37;2.17;;;;;;;21.69;44.45;96378.81;5079353;28;21028;-68
2021/06/30 11:42:35;;;;;;;1.60;1.17;;;;;;;22.01;49.79;96375.56;5073310;28;20191;-69